Time;durP1;ratioP1;P1;durP2;ratioP2;P2;SDS_P1;SDS_P2;PMS_P1;PMS_P2;Temp;Humidity;BMP_temperature;BMP_pressure;BME280_temperature;BME280_humidity;BME280_pressure;Samples;Min_cycle;Max_cycle;Signal;HPM_P1;HPM_P2
2022/11/17 00:01:03;;;;;;;14.73;6.80;;;;;;;;;;4983677;28;20130;-72
2022/11/17 00:03:29;;;;;;;14.25;6.78;;;;;;;;;;4965725;28;20146;-72
2022/11/17 00:05:54;;;;;;;14.30;6.35;;;;;;;;;;4990012;28;20482;-73
2022/11/17 00:08:20;;;;;;;14.07;7.57;;;;;;;;;;4984280;28;20041;-73
2022/11/17 00:10:45;;;;;;;18.10;8.00;;;;;;;;;;4984227;28;20033;-71
2022/11/17 00:15:57;;;;;;;15.60;8.07;;;;;;;;;;5007517;28;20048;-74
2022/11/17 00:21:22;;;;;;;16.17;7.70;;;;;;;;;;4983313;28;20040;-70
2022/11/17 00:23:48;;;;;;;16.48;7.60;;;;;;;;;;4965654;28;20790;-70
2022/11/17 00:26:30;;;;;;;14.95;7.25;;;;;;;;;;4975607;28;20076;-70
2022/11/17 00:28:57;;;;;;;16.00;8.27;;;;;;;;;;4965108;28;20200;-71
2022/11/17 00:34:17;;;;;;;16.88;7.63;;;;;;;;;;4967744;28;20041;-72
2022/11/17 00:36:52;;;;;;;15.82;7.18;;;;;;;;;;4966155;28;20942;-71
2022/11/17 00:39:21;;;;;;;18.38;7.05;;;;;;;;;;4962833;28;20034;-73
2022/11/17 00:41:46;;;;;;;15.63;6.60;;;;;;;;;;4967480;28;20030;-71
2022/11/17 00:44:12;;;;;;;17.50;6.05;;;;;;;;;;4973009;28;20065;-71
2022/11/17 00:46:38;;;;;;;13.60;6.63;;;;;;;;;;4983188;28;20132;-70
2022/11/17 00:49:05;;;;;;;12.60;5.85;;;;;;;;;;4962565;28;20064;-70
2022/11/17 00:51:31;;;;;;;20.58;6.50;;;;;;;;;;4965504;28;23059;-71
2022/11/17 00:53:56;;;;;;;13.90;6.40;;;;;;;;;;4965383;28;20038;-69
2022/11/17 00:56:21;;;;;;;12.75;6.40;;;;;;;;;;4966409;28;20042;-70
2022/11/17 00:58:47;;;;;;;13.93;6.05;;;;;;;;;;4982897;28;20039;-71
2022/11/17 01:01:18;;;;;;;17.13;6.57;;;;;;;;;;4985354;28;20174;-71
2022/11/17 01:03:44;;;;;;;19.50;7.13;;;;;;;;;;4961678;28;20048;-70
2022/11/17 01:06:10;;;;;;;16.25;6.75;;;;;;;;;;4963839;28;20073;-70
2022/11/17 01:08:43;;;;;;;15.95;7.07;;;;;;;;;;4962523;28;20048;-70
2022/11/17 01:11:13;;;;;;;20.95;7.43;;;;;;;;;;4952359;28;20922;-73
2022/11/17 01:13:38;;;;;;;13.80;6.57;;;;;;;;;;4982200;28;20516;-71
2022/11/17 01:16:10;;;;;;;14.25;6.57;;;;;;;;;;4974871;28;20670;-71
2022/11/17 01:18:36;;;;;;;12.85;7.20;;;;;;;;;;4978062;28;20124;-71
2022/11/17 01:21:10;;;;;;;13.50;7.80;;;;;;;;;;4979449;28;20513;-76
2022/11/17 01:23:39;;;;;;;16.25;7.55;;;;;;;;;;4979591;28;20475;-70
2022/11/17 01:26:06;;;;;;;13.50;7.95;;;;;;;;;;4967550;28;20581;-70
2022/11/17 01:28:31;;;;;;;17.88;8.50;;;;;;;;;;4960569;28;20034;-69
2022/11/17 01:31:04;;;;;;;16.60;8.57;;;;;;;;;;4967637;28;20277;-72
2022/11/17 01:33:29;;;;;;;15.18;8.60;;;;;;;;;;4980950;28;20045;-73
2022/11/17 01:35:58;;;;;;;13.00;8.60;;;;;;;;;;4993073;28;20036;-72
2022/11/17 01:38:26;;;;;;;12.77;8.20;;;;;;;;;;4970806;28;20052;-72
2022/11/17 01:40:51;;;;;;;13.35;8.20;;;;;;;;;;5007871;28;20751;-72
2022/11/17 01:43:35;;;;;;;11.95;7.93;;;;;;;;;;4969135;28;22301;-73
2022/11/17 01:46:00;;;;;;;12.82;8.27;;;;;;;;;;4978359;28;20045;-71
2022/11/17 01:48:26;;;;;;;13.65;7.53;;;;;;;;;;4980877;28;20542;-71
2022/11/17 01:50:53;;;;;;;12.98;7.20;;;;;;;;;;4980199;28;20068;-71
2022/11/17 01:53:21;;;;;;;8.27;6.53;;;;;;;;;;4982912;28;20038;-72
2022/11/17 01:55:46;;;;;;;11.27;7.10;;;;;;;;;;4979602;28;20120;-69
2022/11/17 01:58:14;;;;;;;12.65;7.13;;;;;;;;;;4980438;28;20431;-69
2022/11/17 02:00:40;;;;;;;12.88;7.13;;;;;;;;;;4979527;28;20842;-73
2022/11/17 02:03:06;;;;;;;12.27;6.88;;;;;;;;;;4995379;28;20037;-71
2022/11/17 02:05:38;;;;;;;10.63;6.40;;;;;;;;;;4979727;28;20370;-71
2022/11/17 02:08:05;;;;;;;13.15;6.80;;;;;;;;;;4975953;28;20382;-70
2022/11/17 02:10:30;;;;;;;10.30;6.40;;;;;;;;;;4957351;28;20449;-70
2022/11/17 02:12:57;;;;;;;10.10;6.40;;;;;;;;;;4960608;28;20041;-69
2022/11/17 02:15:23;;;;;;;10.18;6.35;;;;;;;;;;4959188;28;20038;-70
2022/11/17 02:17:49;;;;;;;9.65;6.40;;;;;;;;;;4959540;28;20057;-69
2022/11/17 02:20:18;;;;;;;9.35;6.57;;;;;;;;;;4960516;28;20123;-70
2022/11/17 02:22:45;;;;;;;9.65;6.68;;;;;;;;;;4992289;28;20132;-70
2022/11/17 02:25:16;;;;;;;10.23;6.20;;;;;;;;;;4974479;28;20061;-69
2022/11/17 02:27:42;;;;;;;8.13;6.28;;;;;;;;;;4979179;28;20601;-70
2022/11/17 02:30:11;;;;;;;8.95;6.18;;;;;;;;;;4979944;28;20095;-70
2022/11/17 02:32:54;;;;;;;12.88;6.55;;;;;;;;;;4977691;28;20037;-70
2022/11/17 02:35:26;;;;;;;8.18;5.63;;;;;;;;;;4960204;28;20044;-66
2022/11/17 02:38:15;;;;;;;8.98;6.30;;;;;;;;;;4959959;28;20038;-70
2022/11/17 02:40:42;;;;;;;8.75;6.38;;;;;;;;;;4978986;28;20041;-70
2022/11/17 02:46:15;;;;;;;16.38;10.05;;;;;;;;;;4947915;28;20056;-68
2022/11/17 02:48:44;;;;;;;11.63;7.45;;;;;;;;;;4981992;28;20037;-68
2022/11/17 02:51:12;;;;;;;10.73;6.80;;;;;;;;;;4981522;28;20049;-69
2022/11/17 02:53:40;;;;;;;8.63;6.00;;;;;;;;;;4994911;28;20072;-72
2022/11/17 02:56:06;;;;;;;11.20;6.85;;;;;;;;;;4981945;28;20040;-68
2022/11/17 02:58:40;;;;;;;7.85;5.78;;;;;;;;;;4979465;28;20150;-71
2022/11/17 03:01:08;;;;;;;12.32;5.57;;;;;;;;;;5004279;28;20957;-68
2022/11/17 03:03:42;;;;;;;8.77;6.70;;;;;;;;;;4981520;28;20042;-69
2022/11/17 03:06:29;;;;;;;10.52;6.22;;;;;;;;;;4979318;28;20127;-71
2022/11/17 03:09:14;;;;;;;10.55;5.53;;;;;;;;;;4961548;28;20585;-68
2022/11/17 03:11:54;;;;;;;7.57;5.80;;;;;;;;;;4961781;28;20041;-70
2022/11/17 03:14:22;;;;;;;10.80;6.47;;;;;;;;;;4953577;28;20026;-68
2022/11/17 03:16:54;;;;;;;10.40;5.90;;;;;;;;;;4959645;28;20346;-70
2022/11/17 03:19:19;;;;;;;9.93;6.30;;;;;;;;;;4961777;28;20143;-70
2022/11/17 03:21:54;;;;;;;14.10;7.57;;;;;;;;;;4963169;28;20034;-69
2022/11/17 03:24:28;;;;;;;11.75;7.35;;;;;;;;;;4961735;28;20034;-69
2022/11/17 03:26:59;;;;;;;11.77;7.05;;;;;;;;;;4956060;28;20049;-68
2022/11/17 03:29:29;;;;;;;11.90;6.50;;;;;;;;;;4995199;28;20041;-68
2022/11/17 03:32:03;;;;;;;11.10;6.75;;;;;;;;;;4980140;28;20038;-68
2022/11/17 03:34:30;;;;;;;14.25;6.57;;;;;;;;;;4981095;28;20080;-68
2022/11/17 03:37:00;;;;;;;15.93;6.97;;;;;;;;;;4968693;28;20042;-69
2022/11/17 03:39:31;;;;;;;11.18;6.38;;;;;;;;;;4962929;28;20041;-68
2022/11/17 03:42:00;;;;;;;11.38;6.45;;;;;;;;;;4962400;28;21599;-68
2022/11/17 03:44:27;;;;;;;10.02;5.85;;;;;;;;;;4960895;28;20118;-68
2022/11/17 03:46:54;;;;;;;8.98;5.47;;;;;;;;;;4960311;28;20058;-68
2022/11/17 03:49:33;;;;;;;9.02;5.28;;;;;;;;;;4962932;28;20048;-67
2022/11/17 03:51:58;;;;;;;10.48;5.10;;;;;;;;;;4973200;28;20096;-67
2022/11/17 03:54:24;;;;;;;12.43;5.15;;;;;;;;;;4970657;28;20705;-68
2022/11/17 03:57:09;;;;;;;11.50;4.78;;;;;;;;;;4963796;28;20050;-67
2022/11/17 03:59:44;;;;;;;10.98;4.40;;;;;;;;;;4958735;28;20042;-68
2022/11/17 04:02:17;;;;;;;9.20;4.18;;;;;;;;;;4961422;28;20052;-68
2022/11/17 04:07:26;;;;;;;7.75;4.20;;;;;;;;;;4964600;28;20054;-68
2022/11/17 04:09:51;;;;;;;11.68;4.45;;;;;;;;;;4966438;28;20037;-69
2022/11/17 04:17:45;;;;;;;11.02;3.95;;;;;;;;;;4964881;28;20176;-70
2022/11/17 04:20:10;;;;;;;10.32;4.43;;;;;;;;;;4963295;28;20054;-68
2022/11/17 04:22:36;;;;;;;9.38;4.22;;;;;;;;;;4966427;28;21244;-69
2022/11/17 04:25:01;;;;;;;7.78;3.40;;;;;;;;;;4988669;28;20041;-67
2022/11/17 04:30:13;;;;;;;9.90;3.30;;;;;;;;;;4987290;28;20062;-67
2022/11/17 04:32:39;;;;;;;9.00;3.40;;;;;;;;;;4982883;28;20040;-68
2022/11/17 04:35:06;;;;;;;8.88;2.83;;;;;;;;;;4984780;28;20038;-68
2022/11/17 04:37:32;;;;;;;7.15;2.78;;;;;;;;;;4984804;28;20926;-68
2022/11/17 04:40:00;;;;;;;9.25;3.30;;;;;;;;;;4979645;28;20030;-70
2022/11/17 04:42:25;;;;;;;5.85;2.90;;;;;;;;;;4985882;28;20033;-69
2022/11/17 04:44:51;;;;;;;9.25;2.78;;;;;;;;;;4984461;28;20156;-69
2022/11/17 04:47:16;;;;;;;9.88;2.90;;;;;;;;;;4981992;28;20041;-69
2022/11/17 04:49:41;;;;;;;7.75;2.50;;;;;;;;;;4984852;28;20111;-69
2022/11/17 04:52:07;;;;;;;6.30;2.28;;;;;;;;;;4985258;28;20825;-69
2022/11/17 04:54:32;;;;;;;6.72;2.60;;;;;;;;;;4975509;28;20184;-70
2022/11/17 04:56:57;;;;;;;5.70;2.70;;;;;;;;;;4964574;28;20151;-69
2022/11/17 04:59:23;;;;;;;8.70;2.95;;;;;;;;;;4973287;28;20061;-69
2022/11/17 05:01:49;;;;;;;5.75;2.72;;;;;;;;;;4984290;28;20042;-69
2022/11/17 05:04:54;;;;;;;9.00;2.70;;;;;;;;;;4983680;28;20038;-69
2022/11/17 05:07:03;;;;;;;7.10;3.00;;;;;;;;;;4981240;28;20049;-69
2022/11/17 05:09:28;;;;;;;8.55;3.15;;;;;;;;;;4967263;28;20515;-69
2022/11/17 05:14:39;;;;;;;10.57;3.40;;;;;;;;;;4985227;28;20052;-71
2022/11/17 05:17:05;;;;;;;5.90;3.42;;;;;;;;;;4985750;28;20128;-71
2022/11/17 05:19:40;;;;;;;8.05;3.60;;;;;;;;;;4981870;28;20778;-70
2022/11/17 05:23:52;;;;;;;7.43;3.83;;;;;;;;;;4980858;28;20036;-70
2022/11/17 05:24:55;;;;;;;9.32;3.53;;;;;;;;;;4962506;28;20038;-70
2022/11/17 05:27:21;;;;;;;7.68;3.70;;;;;;;;;;4961455;28;20149;-72
2022/11/17 05:29:46;;;;;;;8.90;3.58;;;;;;;;;;4964425;28;20128;-72
2022/11/17 05:32:12;;;;;;;9.07;3.33;;;;;;;;;;4961961;28;20042;-72
2022/11/17 05:34:37;;;;;;;5.38;3.60;;;;;;;;;;4962777;28;20049;-71
2022/11/17 05:37:05;;;;;;;8.27;3.35;;;;;;;;;;4961766;28;20080;-70
2022/11/17 05:39:31;;;;;;;7.15;3.60;;;;;;;;;;4978270;28;20878;-71
2022/11/17 05:41:58;;;;;;;6.03;3.40;;;;;;;;;;4962918;28;20033;-70
2022/11/17 05:44:23;;;;;;;6.22;3.63;;;;;;;;;;4964019;28;20103;-71
2022/11/17 05:46:49;;;;;;;7.85;3.20;;;;;;;;;;4962653;28;20153;-71
2022/11/17 05:49:15;;;;;;;6.90;2.80;;;;;;;;;;4967204;28;20922;-70
2022/11/17 05:51:40;;;;;;;7.95;2.85;;;;;;;;;;4964136;28;20048;-70
2022/11/17 05:54:06;;;;;;;5.57;2.53;;;;;;;;;;4962547;28;20034;-72
2022/11/17 05:56:38;;;;;;;6.35;2.53;;;;;;;;;;4960870;28;20048;-70
2022/11/17 05:59:23;;;;;;;7.20;3.00;;;;;;;;;;4961026;28;20042;-70
2022/11/17 06:01:52;;;;;;;7.30;2.67;;;;;;;;;;4976586;28;20082;-72
2022/11/17 06:04:18;;;;;;;5.20;2.60;;;;;;;;;;4992549;28;20326;-72
2022/11/17 06:06:44;;;;;;;7.65;2.92;;;;;;;;;;4980266;28;20512;-72
2022/11/17 06:09:11;;;;;;;10.88;3.30;;;;;;;;;;4981153;28;20476;-72
2022/11/17 06:11:37;;;;;;;4.68;3.42;;;;;;;;;;4973539;28;20041;-72
2022/11/17 06:14:04;;;;;;;6.82;3.47;;;;;;;;;;4976455;28;20597;-72
2022/11/17 06:16:31;;;;;;;6.95;3.70;;;;;;;;;;4979109;28;21236;-71
2022/11/17 06:19:01;;;;;;;6.53;4.20;;;;;;;;;;4980470;28;20107;-74
2022/11/17 06:21:26;;;;;;;10.77;4.60;;;;;;;;;;4981110;28;20030;-73
2022/11/17 06:23:52;;;;;;;6.10;4.20;;;;;;;;;;4981647;28;20061;-76
2022/11/17 06:26:17;;;;;;;8.90;4.75;;;;;;;;;;4991684;28;20044;-75
2022/11/17 06:28:44;;;;;;;6.75;4.40;;;;;;;;;;4994518;28;20033;-75
2022/11/17 06:31:09;;;;;;;8.80;4.60;;;;;;;;;;4983996;28;20623;-75
2022/11/17 06:33:35;;;;;;;8.70;4.20;;;;;;;;;;4979533;28;20065;-70
2022/11/17 06:36:03;;;;;;;8.35;4.97;;;;;;;;;;4979306;28;21081;-70
2022/11/17 06:38:30;;;;;;;8.57;4.80;;;;;;;;;;4983477;28;20037;-71
2022/11/17 06:40:55;;;;;;;6.60;4.38;;;;;;;;;;4981093;28;20963;-71
2022/11/17 06:43:23;;;;;;;6.55;4.57;;;;;;;;;;4984136;28;20026;-72
2022/11/17 06:45:49;;;;;;;7.95;3.97;;;;;;;;;;4976136;28;20041;-72
2022/11/17 06:48:15;;;;;;;5.93;3.67;;;;;;;;;;4981188;28;20514;-73
2022/11/17 06:50:41;;;;;;;7.90;4.07;;;;;;;;;;4993583;28;20060;-73
2022/11/17 06:53:07;;;;;;;7.22;4.60;;;;;;;;;;4979944;28;20033;-73
2022/11/17 06:55:34;;;;;;;8.05;5.00;;;;;;;;;;4958319;28;20042;-72
2022/11/17 06:58:02;;;;;;;10.07;4.90;;;;;;;;;;4960597;28;20068;-73
2022/11/17 07:00:28;;;;;;;6.72;4.10;;;;;;;;;;4979634;28;20068;-72
2022/11/17 07:03:00;;;;;;;8.50;3.78;;;;;;;;;;4974706;28;20032;-75
2022/11/17 07:05:32;;;;;;;9.68;7.45;;;;;;;;;;4979810;28;20641;-71
2022/11/17 07:07:59;;;;;;;25.83;15.38;;;;;;;;;;4973376;28;20041;-71
2022/11/17 07:10:28;;;;;;;23.58;13.82;;;;;;;;;;4979231;28;20544;-73
2022/11/17 07:12:53;;;;;;;26.02;14.10;;;;;;;;;;4966649;28;20038;-73
2022/11/17 07:15:19;;;;;;;21.77;13.23;;;;;;;;;;4971954;28;20045;-72
2022/11/17 07:17:44;;;;;;;19.15;12.15;;;;;;;;;;4979087;28;20766;-71
2022/11/17 07:20:14;;;;;;;20.90;12.45;;;;;;;;;;4969125;28;20133;-72
2022/11/17 07:22:41;;;;;;;32.20;15.73;;;;;;;;;;4957817;28;20049;-72
2022/11/17 07:25:10;;;;;;;23.60;13.55;;;;;;;;;;4958848;28;20344;-73
2022/11/17 07:27:36;;;;;;;32.67;16.60;;;;;;;;;;4962346;28;20034;-72
2022/11/17 07:30:03;;;;;;;31.98;12.88;;;;;;;;;;4965373;28;20133;-72
2022/11/17 07:32:33;;;;;;;23.08;13.15;;;;;;;;;;4968919;28;20044;-72
2022/11/17 07:35:00;;;;;;;30.90;16.20;;;;;;;;;;4983922;28;20136;-72
2022/11/17 07:37:26;;;;;;;31.58;15.15;;;;;;;;;;4989097;28;20052;-72
2022/11/17 07:39:54;;;;;;;32.75;16.08;;;;;;;;;;4977294;28;20047;-70
2022/11/17 07:42:19;;;;;;;26.52;14.75;;;;;;;;;;4966878;28;20866;-72
2022/11/17 07:44:44;;;;;;;31.38;14.50;;;;;;;;;;4981022;28;20132;-72
2022/11/17 07:47:10;;;;;;;26.33;13.10;;;;;;;;;;4979417;28;20076;-73
2022/11/17 07:49:35;;;;;;;24.08;11.75;;;;;;;;;;4983197;28;20073;-72
2022/11/17 07:52:01;;;;;;;33.13;15.98;;;;;;;;;;4996622;28;20048;-72
2022/11/17 07:54:26;;;;;;;38.53;16.58;;;;;;;;;;4974218;28;20684;-71
2022/11/17 07:56:52;;;;;;;33.10;14.32;;;;;;;;;;4982884;28;20119;-71
2022/11/17 07:59:17;;;;;;;20.88;10.68;;;;;;;;;;4963704;28;20049;-72
2022/11/17 08:01:52;;;;;;;21.17;10.32;;;;;;;;;;4972074;28;20060;-70
2022/11/17 08:04:18;;;;;;;21.25;10.43;;;;;;;;;;4957790;28;20045;-72
2022/11/17 08:06:44;;;;;;;17.95;9.13;;;;;;;;;;4957803;28;20050;-73
2022/11/17 08:09:12;;;;;;;22.60;9.65;;;;;;;;;;4984523;28;20038;-73
2022/11/17 08:11:39;;;;;;;23.80;9.95;;;;;;;;;;4970670;28;20034;-72
2022/11/17 08:14:05;;;;;;;29.13;11.23;;;;;;;;;;4963214;28;20218;-73
2022/11/17 08:16:30;;;;;;;31.35;13.68;;;;;;;;;;4973844;28;20492;-73
2022/11/17 08:18:56;;;;;;;26.45;12.68;;;;;;;;;;4962522;28;20040;-70
2022/11/17 08:21:22;;;;;;;37.75;17.95;;;;;;;;;;4963337;28;20048;-71
2022/11/17 08:23:51;;;;;;;41.05;16.92;;;;;;;;;;4946233;28;20097;-70
2022/11/17 08:26:23;;;;;;;39.00;16.38;;;;;;;;;;4959764;28;20092;-71
2022/11/17 08:28:49;;;;;;;24.05;12.95;;;;;;;;;;4990974;28;20625;-70
2022/11/17 08:31:15;;;;;;;26.40;13.05;;;;;;;;;;4981147;28;20426;-71
2022/11/17 08:33:40;;;;;;;44.20;16.90;;;;;;;;;;4985515;28;22850;-71
2022/11/17 08:36:06;;;;;;;17.50;10.85;;;;;;;;;;4961825;28;20072;-72
2022/11/17 08:38:32;;;;;;;46.78;16.15;;;;;;;;;;4956761;28;20041;-72
2022/11/17 08:41:03;;;;;;;32.40;13.18;;;;;;;;;;4958538;28;20045;-72
2022/11/17 08:43:32;;;;;;;26.15;10.60;;;;;;;;;;4937970;28;20083;-70
2022/11/17 08:45:57;;;;;;;23.00;9.70;;;;;;;;;;4951910;28;20046;-71
2022/11/17 08:48:23;;;;;;;26.88;10.00;;;;;;;;;;4982454;28;20438;-72
2022/11/17 08:50:49;;;;;;;19.23;8.88;;;;;;;;;;4962780;28;20041;-73
2022/11/17 08:53:20;;;;;;;16.77;8.20;;;;;;;;;;4976031;28;20716;-72
2022/11/17 08:55:45;;;;;;;31.15;10.95;;;;;;;;;;4970487;28;20050;-73
2022/11/17 08:58:11;;;;;;;25.67;9.35;;;;;;;;;;4959457;28;20110;-71
2022/11/17 09:00:37;;;;;;;20.00;8.38;;;;;;;;;;4979197;28;20037;-72
2022/11/17 09:03:06;;;;;;;22.00;8.88;;;;;;;;;;4973851;28;20045;-74
2022/11/17 09:05:45;;;;;;;36.17;11.23;;;;;;;;;;4974492;28;20192;-73
2022/11/17 09:08:13;;;;;;;57.20;15.98;;;;;;;;;;4978673;28;20025;-74
2022/11/17 09:10:41;;;;;;;33.97;13.35;;;;;;;;;;4983599;28;20041;-71
2022/11/17 09:13:06;;;;;;;42.70;11.55;;;;;;;;;;4980720;28;20042;-73
2022/11/17 09:15:34;;;;;;;30.00;10.73;;;;;;;;;;4977331;28;20072;-72
2022/11/17 09:18:01;;;;;;;32.95;11.93;;;;;;;;;;4978091;28;20036;-74
2022/11/17 09:20:30;;;;;;;25.10;9.82;;;;;;;;;;4954261;28;20168;-73
2022/11/17 09:23:04;;;;;;;51.85;12.30;;;;;;;;;;4980241;28;20619;-74
2022/11/17 09:25:29;;;;;;;73.90;16.85;;;;;;;;;;4956756;28;20636;-72
2022/11/17 09:27:55;;;;;;;43.30;13.00;;;;;;;;;;4962798;28;20060;-73
2022/11/17 09:30:21;;;;;;;57.90;14.60;;;;;;;;;;4959360;28;20233;-73
2022/11/17 09:32:50;;;;;;;59.13;14.55;;;;;;;;;;4980725;28;20080;-72
2022/11/17 09:35:18;;;;;;;54.85;13.05;;;;;;;;;;4988258;28;20596;-73
2022/11/17 09:37:44;;;;;;;57.42;14.80;;;;;;;;;;4979801;28;20045;-72
2022/11/17 09:40:17;;;;;;;32.03;9.02;;;;;;;;;;4976736;28;20034;-72
2022/11/17 09:42:45;;;;;;;41.17;10.75;;;;;;;;;;4976239;28;20112;-74
2022/11/17 09:45:16;;;;;;;49.25;12.18;;;;;;;;;;4980324;28;20033;-73
2022/11/17 09:47:45;;;;;;;27.00;8.52;;;;;;;;;;4965883;28;20167;-74
2022/11/17 09:50:26;;;;;;;25.30;8.57;;;;;;;;;;4976126;28;20286;-72
2022/11/17 09:53:02;;;;;;;50.08;15.07;;;;;;;;;;4966230;28;20049;-72
2022/11/17 09:55:30;;;;;;;36.70;11.15;;;;;;;;;;4977484;28;20175;-72
2022/11/17 09:58:00;;;;;;;20.30;6.38;;;;;;;;;;4976537;28;20103;-72
2022/11/17 10:00:33;;;;;;;70.13;18.40;;;;;;;;;;4967170;28;20037;-73
2022/11/17 10:02:59;;;;;;;43.42;9.35;;;;;;;;;;4983528;28;20048;-75
2022/11/17 10:05:33;;;;;;;47.50;12.52;;;;;;;;;;4961507;28;20425;-74
2022/11/17 10:08:05;;;;;;;31.20;6.68;;;;;;;;;;4975184;28;20433;-73
2022/11/17 10:10:41;;;;;;;61.10;15.50;;;;;;;;;;4937374;28;20201;-73
2022/11/17 10:13:13;;;;;;;20.98;5.90;;;;;;;;;;4930052;28;20033;-71
2022/11/17 10:15:46;;;;;;;75.35;13.55;;;;;;;;;;4970019;28;20084;-72
2022/11/17 10:18:13;;;;;;;44.75;10.05;;;;;;;;;;4961573;28;20115;-73
2022/11/17 10:20:43;;;;;;;91.18;18.65;;;;;;;;;;4954364;28;20532;-70
2022/11/17 10:23:14;;;;;;;73.05;15.40;;;;;;;;;;4951588;28;20049;-70
2022/11/17 10:25:42;;;;;;;57.63;13.43;;;;;;;;;;4972683;28;20239;-73
2022/11/17 10:28:25;;;;;;;63.58;14.90;;;;;;;;;;4973022;28;20045;-70
2022/11/17 10:30:59;;;;;;;64.65;15.82;;;;;;;;;;4963939;28;20096;-70
2022/11/17 10:33:42;;;;;;;45.42;12.25;;;;;;;;;;4946733;28;20038;-70
2022/11/17 10:36:20;;;;;;;68.03;15.52;;;;;;;;;;4947573;28;20044;-70
2022/11/17 10:38:53;;;;;;;115.93;24.20;;;;;;;;;;4977486;28;20094;-72
2022/11/17 10:41:25;;;;;;;21.73;5.93;;;;;;;;;;4956394;28;20258;-71
2022/11/17 10:43:56;;;;;;;29.25;8.43;;;;;;;;;;4973052;28;20260;-71
2022/11/17 10:46:22;;;;;;;47.00;10.75;;;;;;;;;;4958745;28;20158;-73
2022/11/17 10:49:08;;;;;;;69.07;17.00;;;;;;;;;;4888794;28;20062;-73
2022/11/17 10:52:13;;;;;;;82.53;20.90;;;;;;;;;;4966257;28;20038;-70
2022/11/17 10:54:42;;;;;;;30.65;8.35;;;;;;;;;;4930055;28;20534;-71
2022/11/17 10:57:12;;;;;;;;;;;;;;;;;;4930185;28;20107;-71
2022/11/17 10:59:45;;;;;;;19.13;6.85;;;;;;;;;;4977420;28;19963;-71
2022/11/17 11:02:29;;;;;;;24.55;6.82;;;;;;;;;;4987985;28;20030;-70
2022/11/17 11:05:11;;;;;;;29.77;6.97;;;;;;;;;;4982232;28;20071;-70
2022/11/17 11:07:37;;;;;;;12.27;4.53;;;;;;;;;;4958012;28;20145;-71
2022/11/17 11:10:51;;;;;;;12.18;4.35;;;;;;;;;;4962344;28;20037;-71
2022/11/17 11:13:20;;;;;;;11.95;4.68;;;;;;;;;;4856746;28;20042;-71
2022/11/17 11:15:58;;;;;;;13.45;3.97;;;;;;;;;;4959920;28;20127;-70
2022/11/17 11:18:26;;;;;;;10.85;3.30;;;;;;;;;;4971437;28;20130;-71
2022/11/17 11:21:17;;;;;;;14.68;4.57;;;;;;;;;;4964967;28;20044;-71
2022/11/17 11:23:48;;;;;;;12.85;4.55;;;;;;;;;;4961511;28;20089;-71
2022/11/17 11:26:42;;;;;;;11.20;3.60;;;;;;;;;;4958617;28;20054;-71
2022/11/17 11:29:16;;;;;;;8.05;3.42;;;;;;;;;;4930743;28;20043;-72
2022/11/17 11:31:53;;;;;;;27.88;8.30;;;;;;;;;;4981308;28;20045;-71
2022/11/17 11:34:46;;;;;;;13.18;4.07;;;;;;;;;;4982201;28;20037;-71
2022/11/17 11:37:13;;;;;;;13.27;4.28;;;;;;;;;;4963069;28;20771;-71
2022/11/17 11:39:57;;;;;;;8.80;3.67;;;;;;;;;;4962542;28;20433;-70
2022/11/17 11:42:29;;;;;;;10.27;3.40;;;;;;;;;;4966857;28;20295;-71
2022/11/17 11:45:01;;;;;;;14.38;4.38;;;;;;;;;;4981479;28;20451;-70
2022/11/17 11:47:29;;;;;;;12.38;3.25;;;;;;;;;;4967897;28;22029;-71
2022/11/17 11:50:02;;;;;;;11.55;3.55;;;;;;;;;;4960871;28;20081;-70
2022/11/17 11:52:30;;;;;;;10.38;3.90;;;;;;;;;;4955680;28;20053;-70
2022/11/17 11:55:00;;;;;;;20.38;5.40;;;;;;;;;;4974448;28;20053;-68
2022/11/17 11:57:33;;;;;;;14.23;4.22;;;;;;;;;;4977011;28;20037;-68
2022/11/17 12:00:00;;;;;;;21.85;7.30;;;;;;;;;;4975884;28;20048;-68
2022/11/17 12:02:44;;;;;;;17.63;5.57;;;;;;;;;;4979404;28;20505;-69
2022/11/17 12:05:10;;;;;;;11.15;3.10;;;;;;;;;;4989263;28;20036;-69
2022/11/17 12:07:42;;;;;;;11.43;3.15;;;;;;;;;;4985271;28;20616;-69
2022/11/17 12:10:35;;;;;;;12.48;3.83;;;;;;;;;;4963344;28;20858;-69
2022/11/17 12:13:03;;;;;;;15.55;5.00;;;;;;;;;;4955341;28;21768;-69
2022/11/17 12:15:30;;;;;;;14.45;3.95;;;;;;;;;;4955607;28;20042;-70
2022/11/17 12:18:04;;;;;;;7.68;4.47;;;;;;;;;;4970860;28;20034;-70
2022/11/17 12:20:35;;;;;;;9.52;2.00;;;;;;;;;;4999990;28;20067;-70
2022/11/17 12:23:19;;;;;;;8.60;2.70;;;;;;;;;;4987814;28;20140;-72
2022/11/17 12:25:46;;;;;;;8.65;2.50;;;;;;;;;;4964412;28;20140;-72
2022/11/17 12:28:30;;;;;;;8.25;2.25;;;;;;;;;;4973400;28;20059;-72
2022/11/17 12:30:56;;;;;;;10.43;2.40;;;;;;;;;;4964359;28;20042;-71
2022/11/17 12:33:22;;;;;;;11.68;2.70;;;;;;;;;;4963379;28;20040;-70
2022/11/17 12:36:17;;;;;;;10.98;3.05;;;;;;;;;;4964094;28;20829;-71
2022/11/17 12:38:45;;;;;;;12.30;3.15;;;;;;;;;;4953617;28;20064;-71
2022/11/17 12:41:11;;;;;;;10.73;3.00;;;;;;;;;;4969347;28;20987;-70
2022/11/17 12:43:36;;;;;;;8.43;2.80;;;;;;;;;;4946415;28;20044;-72
2022/11/17 12:46:20;;;;;;;9.10;3.30;;;;;;;;;;4962037;28;20049;-72
2022/11/17 12:48:55;;;;;;;7.78;3.72;;;;;;;;;;4995386;28;20145;-72
2022/11/17 12:51:20;;;;;;;21.73;11.13;;;;;;;;;;4981874;28;20047;-72
2022/11/17 12:54:02;;;;;;;39.35;29.55;;;;;;;;;;4983723;28;20470;-70
2022/11/17 12:56:30;;;;;;;35.08;29.77;;;;;;;;;;4961119;28;20366;-71
2022/11/17 12:59:19;;;;;;;39.33;35.03;;;;;;;;;;4966384;28;20727;-71
2022/11/17 13:01:57;;;;;;;40.53;36.47;;;;;;;;;;4981073;28;20041;-70
2022/11/17 13:04:33;;;;;;;32.83;25.85;;;;;;;;;;4981431;28;22409;-71
2022/11/17 13:07:00;;;;;;;26.75;16.17;;;;;;;;;;4994912;28;20037;-71
2022/11/17 13:09:26;;;;;;;24.80;14.57;;;;;;;;;;4974282;28;20033;-70
2022/11/17 13:12:03;;;;;;;28.70;17.95;;;;;;;;;;4978841;28;20942;-73
2022/11/17 13:14:29;;;;;;;24.58;14.93;;;;;;;;;;5004232;28;20034;-71
2022/11/17 13:16:57;;;;;;;26.00;14.63;;;;;;;;;;4978915;28;20037;-74
2022/11/17 13:19:25;;;;;;;16.27;6.32;;;;;;;;;;4980086;28;20088;-72
2022/11/17 13:21:57;;;;;;;15.20;5.90;;;;;;;;;;4983279;28;20150;-73
2022/11/17 13:24:30;;;;;;;17.60;5.53;;;;;;;;;;4984458;28;20142;-72
2022/11/17 13:26:59;;;;;;;21.67;9.60;;;;;;;;;;4981799;28;20042;-72
2022/11/17 13:29:25;;;;;;;20.80;7.43;;;;;;;;;;4983769;28;21669;-72
2022/11/17 13:32:04;;;;;;;21.00;7.90;;;;;;;;;;4984682;28;20044;-72
2022/11/17 13:34:29;;;;;;;33.13;11.00;;;;;;;;;;4982448;28;20034;-75
2022/11/17 13:36:56;;;;;;;38.58;12.48;;;;;;;;;;4982179;28;20060;-75
2022/11/17 13:39:21;;;;;;;35.10;14.18;;;;;;;;;;4981376;28;20753;-73
2022/11/17 13:41:49;;;;;;;31.05;12.60;;;;;;;;;;4979258;28;20029;-74
2022/11/17 13:44:17;;;;;;;28.33;9.35;;;;;;;;;;4976336;28;20041;-75
2022/11/17 13:46:42;;;;;;;33.78;12.60;;;;;;;;;;5007269;28;20152;-75
2022/11/17 13:49:27;;;;;;;49.50;19.73;;;;;;;;;;4970307;28;20497;-73
2022/11/17 13:51:52;;;;;;;41.90;20.92;;;;;;;;;;4993114;28;20268;-76
2022/11/17 13:54:17;;;;;;;41.60;24.95;;;;;;;;;;4980481;28;20161;-74
2022/11/17 13:56:46;;;;;;;38.70;13.38;;;;;;;;;;4980799;28;20144;-75
2022/11/17 13:59:28;;;;;;;43.08;13.15;;;;;;;;;;4994135;28;20127;-73
2022/11/17 14:02:12;;;;;;;35.28;14.93;;;;;;;;;;4978430;28;20030;-74
2022/11/17 14:04:41;;;;;;;39.03;17.17;;;;;;;;;;4971034;28;20045;-73
2022/11/17 14:07:10;;;;;;;34.05;16.25;;;;;;;;;;4957543;28;21756;-73
2022/11/17 14:09:36;;;;;;;37.20;14.75;;;;;;;;;;4958604;28;20038;-73
2022/11/17 14:12:07;;;;;;;38.85;17.40;;;;;;;;;;4973382;28;20140;-72
2022/11/17 14:14:39;;;;;;;14.73;4.13;;;;;;;;;;4957975;28;20337;-72
2022/11/17 14:17:12;;;;;;;18.35;4.57;;;;;;;;;;4952285;28;21794;-71
2022/11/17 14:19:37;;;;;;;17.70;4.78;;;;;;;;;;4956707;28;20474;-71
2022/11/17 14:22:24;;;;;;;19.15;5.72;;;;;;;;;;4975246;28;20041;-72
2022/11/17 14:24:49;;;;;;;16.30;4.40;;;;;;;;;;4989851;28;20065;-71
2022/11/17 14:27:34;;;;;;;20.60;6.75;;;;;;;;;;4975065;28;20138;-71
2022/11/17 14:29:59;;;;;;;17.33;5.53;;;;;;;;;;4970876;28;20041;-71
2022/11/17 14:32:25;;;;;;;21.38;6.53;;;;;;;;;;4971929;28;20069;-71
2022/11/17 14:34:50;;;;;;;20.48;7.15;;;;;;;;;;4955920;28;20687;-71
2022/11/17 14:37:16;;;;;;;27.90;13.25;;;;;;;;;;4956538;28;20057;-71
2022/11/17 14:39:42;;;;;;;21.20;8.00;;;;;;;;;;4957286;28;20467;-70
2022/11/17 14:42:07;;;;;;;26.58;10.63;;;;;;;;;;4953932;28;20041;-73
2022/11/17 14:44:33;;;;;;;43.88;26.02;;;;;;;;;;4954817;28;20038;-73
2022/11/17 14:47:11;;;;;;;25.73;11.25;;;;;;;;;;5017774;27;20399;-71
2022/11/17 14:49:42;;;;;;;17.77;7.45;;;;;;;;;;5009120;28;20121;-72
2022/11/17 14:52:07;;;;;;;19.15;7.43;;;;;;;;;;5028957;28;20157;-72
2022/11/17 14:54:33;;;;;;;17.85;7.00;;;;;;;;;;5024202;28;20377;-72
2022/11/17 14:57:00;;;;;;;29.50;15.90;;;;;;;;;;5004632;28;20044;-73
2022/11/17 14:59:26;;;;;;;24.38;7.50;;;;;;;;;;5034912;28;20497;-75
2022/11/17 15:01:52;;;;;;;31.08;12.20;;;;;;;;;;5019857;28;20557;-73
2022/11/17 15:04:18;;;;;;;20.63;7.13;;;;;;;;;;5015646;28;20575;-75
2022/11/17 15:06:43;;;;;;;30.52;19.58;;;;;;;;;;5012026;28;20190;-73
2022/11/17 15:09:12;;;;;;;34.85;18.00;;;;;;;;;;5013384;28;20440;-74